createdAt,value
2022-10-17T00:00:55.476Z,43.25
2022-10-17T00:05:06.693Z,35.83
2022-10-17T00:09:09.655Z,38.20
2022-10-17T00:13:12.312Z,43.53
2022-10-17T00:17:15.501Z,38.15
2022-10-17T00:21:21.041Z,34.90
2022-10-17T00:25:22.983Z,37.63
2022-10-17T00:29:24.602Z,45.92
2022-10-17T00:33:28.099Z,42.38
2022-10-17T00:37:33.691Z,51.15
2022-10-17T00:41:35.811Z,40.28
2022-10-17T00:45:40.455Z,47.97
2022-10-17T00:49:42.478Z,37.45
2022-10-17T00:53:44.347Z,40.92
2022-10-17T00:57:46.978Z,35.70
2022-10-17T01:02:00.677Z,40.83
2022-10-17T01:06:02.619Z,42.95
2022-10-17T01:10:06.138Z,44.35
2022-10-17T01:14:27.116Z,43.53
2022-10-17T01:19:01.473Z,30.92
2022-10-17T01:23:16.194Z,41.35
2022-10-17T01:27:36.173Z,44.15
2022-10-17T01:31:47.363Z,44.42
2022-10-17T01:36:04.787Z,44.25
2022-10-17T01:40:25.821Z,55.08
2022-10-17T01:45:10.254Z,49.90
2022-10-17T01:49:15.722Z,55.78
2022-10-17T01:53:35.792Z,52.00
2022-10-17T01:57:42.280Z,60.92
2022-10-17T02:01:47.408Z,59.42
2022-10-17T02:05:50.530Z,55.47
2022-10-17T02:09:52.540Z,65.63
2022-10-17T02:14:13.307Z,56.47
2022-10-17T02:18:38.149Z,45.35
2022-10-17T02:22:47.587Z,37.50
2022-10-17T02:27:12.260Z,43.60
2022-10-17T02:31:18.149Z,47.50
2022-10-17T02:35:22.299Z,43.60
2022-10-17T02:39:26.970Z,42.88
2022-10-17T02:43:31.355Z,45.92
2022-10-17T02:47:54.067Z,45.35
2022-10-17T02:52:07.506Z,46.38
2022-10-17T02:56:18.194Z,49.67
2022-10-17T03:00:23.645Z,35.42
2022-10-17T03:04:25.644Z,37.00
2022-10-17T03:08:27.384Z,40.22
2022-10-17T03:12:31.195Z,42.28
2022-10-17T03:16:33.541Z,48.47
2022-10-17T03:20:35.792Z,40.05
2022-10-17T03:24:37.421Z,42.00
2022-10-17T03:28:39.773Z,56.67
2022-10-17T03:32:41.462Z,49.58
2022-10-17T03:36:43.724Z,49.80
2022-10-17T03:40:54.962Z,42.97
2022-10-17T03:44:56.941Z,50.60
2022-10-17T03:48:58.630Z,43.90
2022-10-17T03:53:00.597Z,49.95
2022-10-17T03:57:02.539Z,43.50
2022-10-17T04:01:06.186Z,43.63
2022-10-17T04:05:08.286Z,59.42
2022-10-17T04:09:11.017Z,48.25
2022-10-17T04:13:39.000Z,53.90
2022-10-17T04:17:41.326Z,70.32
2022-10-17T04:21:44.087Z,76.45
2022-10-17T04:25:46.179Z,61.33
2022-10-17T04:29:48.230Z,71.35
2022-10-17T04:33:54.495Z,74.80
2022-10-17T04:37:56.749Z,76.78
2022-10-17T04:42:00.147Z,72.57
2022-10-17T04:46:04.975Z,75.75
2022-10-17T04:50:06.956Z,81.32
2022-10-17T04:54:10.511Z,84.47
2022-10-17T04:58:14.904Z,72.50
2022-10-17T05:02:17.120Z,79.47
2022-10-17T05:06:23.032Z,63.58
2022-10-17T05:10:46.206Z,70.03
2022-10-17T05:14:48.650Z,77.57
2022-10-17T05:18:53.943Z,77.90
2022-10-17T05:22:55.880Z,70.28
2022-10-17T05:26:58.320Z,89.95
2022-10-17T05:31:07.567Z,69.20
2022-10-17T05:35:09.568Z,74.10
2022-10-17T05:39:14.844Z,70.68
2022-10-17T05:43:17.587Z,64.93
2022-10-17T05:47:20.629Z,74.05
2022-10-17T05:51:22.527Z,87.22
2022-10-17T05:55:24.518Z,85.60
2022-10-17T05:59:27.886Z,65.90
2022-10-17T06:03:35.507Z,61.63
2022-10-17T06:07:41.053Z,60.08
2022-10-17T06:11:43.227Z,76.03
2022-10-17T06:15:46.213Z,64.53
2022-10-17T06:19:48.036Z,57.78
2022-10-17T06:23:51.428Z,62.80
2022-10-17T06:28:11.082Z,71.22
2022-10-17T06:32:15.103Z,69.93
2022-10-17T06:36:28.521Z,80.43
2022-10-17T06:40:30.372Z,80.50
2022-10-17T06:44:32.403Z,80.63
2022-10-17T06:48:57.731Z,74.85
2022-10-17T06:53:04.994Z,77.50
2022-10-17T06:57:25.219Z,73.45
2022-10-17T07:01:37.384Z,89.97
2022-10-17T07:05:39.752Z,72.75
2022-10-17T07:09:41.824Z,63.63
2022-10-17T07:13:44.039Z,60.88
2022-10-17T07:17:50.325Z,64.60
2022-10-17T07:21:54.317Z,59.38
2022-10-17T07:26:01.582Z,59.17
2022-10-17T07:30:04.236Z,61.95
2022-10-17T07:34:14.505Z,49.35
2022-10-17T07:38:16.440Z,53.45
2022-10-17T07:42:18.229Z,51.83
2022-10-17T07:46:20.094Z,49.38
2022-10-17T07:50:22.181Z,55.72
2022-10-17T07:54:23.992Z,56.78
2022-10-17T07:58:26.251Z,49.45
2022-10-17T08:02:28.375Z,42.40
2022-10-17T08:06:30.381Z,45.63
2022-10-17T08:10:32.170Z,46.60
2022-10-17T08:14:34.042Z,47.40
2022-10-17T08:18:36.858Z,46.88
2022-10-17T08:22:39.050Z,48.35
2022-10-17T08:26:43.426Z,43.75
2022-10-17T08:30:46.433Z,38.40
2022-10-17T08:34:48.490Z,42.10
2022-10-17T08:38:52.834Z,43.65
2022-10-17T08:43:08.457Z,45.92
2022-10-17T08:47:16.336Z,40.83
2022-10-17T08:51:27.558Z,39.90
2022-10-17T08:55:37.852Z,37.85
2022-10-17T08:59:43.650Z,38.83
2022-10-17T09:04:16.617Z,53.45
2022-10-17T09:08:33.751Z,35.35
2022-10-17T09:13:22.709Z,38.50
2022-10-17T09:17:31.098Z,41.67
2022-10-17T09:30:21.431Z,34.28
2022-10-17T09:34:35.226Z,34.90
2022-10-17T09:38:42.973Z,33.22
2022-10-17T09:42:47.145Z,37.83
2022-10-17T09:47:18.333Z,31.75
2022-10-17T09:51:25.595Z,31.17
2022-10-17T09:55:48.300Z,28.35
2022-10-17T10:00:04.299Z,35.75
2022-10-17T10:04:17.398Z,28.80
2022-10-17T10:08:19.797Z,27.83
2022-10-17T10:12:33.770Z,30.27
2022-10-17T10:16:43.239Z,33.58
2022-10-17T10:20:46.787Z,28.55
2022-10-17T10:25:07.811Z,26.52
2022-10-17T10:29:32.163Z,30.13
2022-10-17T10:33:41.771Z,30.33
2022-10-17T10:37:48.684Z,30.25
2022-10-17T10:41:50.721Z,33.38
2022-10-17T10:45:53.421Z,23.35
2022-10-17T10:50:29.223Z,30.05
2022-10-17T10:54:42.266Z,33.20
2022-10-17T10:58:47.347Z,24.20
2022-10-17T11:02:56.570Z,25.35
2022-10-17T11:07:23.073Z,29.10
2022-10-17T11:11:32.129Z,21.42
2022-10-17T11:15:59.232Z,20.92
2022-10-17T11:20:15.621Z,21.42
2022-10-17T11:24:40.862Z,20.60
2022-10-17T11:28:42.571Z,24.05
2022-10-17T11:32:50.759Z,21.45
2022-10-17T11:36:57.852Z,25.45
2022-10-17T11:41:00.195Z,24.55
2022-10-17T11:45:09.416Z,23.95
2022-10-17T11:49:20.629Z,23.67
2022-10-17T11:53:31.208Z,28.13
2022-10-17T11:57:56.094Z,25.60
2022-10-17T12:02:05.264Z,23.83
2022-10-17T12:06:16.750Z,27.25
2022-10-17T12:10:31.368Z,19.02
2022-10-17T12:14:45.768Z,19.10
2022-10-17T12:18:51.204Z,19.60
2022-10-17T12:23:20.023Z,22.95
2022-10-17T12:27:48.234Z,22.73
2022-10-17T12:31:50.102Z,21.77
2022-10-17T12:36:26.946Z,22.75
2022-10-17T12:40:34.815Z,22.73
2022-10-17T12:44:37.986Z,19.17
2022-10-17T12:48:39.841Z,21.52
2022-10-17T12:52:41.481Z,21.25
2022-10-17T12:56:47.541Z,23.45
2022-10-17T13:01:19.088Z,21.23
2022-10-17T13:05:32.749Z,21.77
2022-10-17T13:09:42.604Z,20.83
2022-10-17T13:13:50.358Z,19.77
2022-10-17T13:17:57.305Z,20.23
2022-10-17T13:22:06.932Z,19.27
2022-10-17T13:26:20.197Z,22.40
2022-10-17T13:30:26.685Z,22.38
2022-10-17T13:34:32.622Z,23.73
2022-10-17T13:38:38.970Z,24.98
2022-10-17T13:42:43.840Z,21.75
2022-10-17T13:46:46.066Z,25.08
2022-10-17T13:50:50.812Z,19.67
2022-10-17T13:54:53.911Z,26.73
2022-10-17T13:59:04.965Z,19.75
2022-10-17T14:03:07.145Z,23.02
2022-10-17T14:08:10.877Z,19.30
2022-10-17T14:12:13.715Z,24.33
2022-10-17T14:16:15.803Z,24.23
2022-10-17T14:20:57.533Z,27.67
2022-10-17T14:24:43.474Z,29.23
2022-10-17T14:28:49.103Z,21.70
2022-10-17T14:32:58.806Z,25.27
2022-10-17T14:37:02.598Z,19.92
2022-10-17T14:41:44.853Z,21.45
2022-10-17T14:45:47.011Z,30.75
2022-10-17T14:50:04.941Z,30.85
2022-10-17T14:54:26.042Z,44.15
2022-10-17T14:58:30.772Z,41.70
2022-10-17T15:02:32.919Z,27.83
2022-10-17T15:06:35.289Z,25.90
2022-10-17T15:10:37.697Z,29.38
2022-10-17T15:14:39.296Z,27.98
2022-10-17T15:18:41.210Z,37.65
2022-10-17T15:22:43.276Z,33.67
2022-10-17T15:26:45.179Z,30.15
2022-10-17T15:30:46.859Z,36.22
2022-10-17T15:34:48.776Z,42.25
2022-10-17T15:38:53.186Z,30.55
2022-10-17T15:42:59.047Z,29.23
2022-10-17T15:47:01.593Z,27.27
2022-10-17T15:51:03.466Z,28.98
2022-10-17T15:55:05.682Z,35.80
2022-10-17T15:59:13.866Z,32.90
2022-10-17T16:03:15.605Z,35.10
2022-10-17T16:07:19.290Z,34.95
2022-10-17T16:11:30.684Z,30.52
2022-10-17T16:15:32.572Z,32.70
2022-10-17T16:19:34.270Z,34.53
2022-10-17T16:23:36.200Z,42.42
2022-10-17T16:27:38.602Z,53.85
2022-10-17T16:31:43.372Z,61.92
2022-10-17T16:35:46.693Z,59.72
2022-10-17T16:39:52.438Z,46.17
2022-10-17T16:43:57.370Z,41.65
2022-10-17T16:47:59.348Z,43.17
2022-10-17T16:52:01.317Z,40.60
2022-10-17T16:56:04.604Z,42.35
2022-10-17T17:00:07.175Z,43.72
2022-10-17T17:04:09.493Z,49.80
2022-10-17T17:08:12.623Z,47.90
2022-10-17T17:12:14.815Z,47.30
2022-10-17T17:16:21.448Z,54.85
2022-10-17T17:20:23.424Z,53.70
2022-10-17T17:24:25.533Z,51.53
2022-10-17T17:28:27.919Z,59.50
2022-10-17T17:32:29.763Z,64.47
2022-10-17T17:36:34.702Z,53.45
2022-10-17T17:40:36.410Z,51.80
2022-10-17T17:44:38.367Z,50.67
2022-10-17T17:48:41.595Z,51.08
2022-10-17T17:52:45.591Z,51.63
2022-10-17T17:56:47.489Z,52.00
2022-10-17T18:00:49.380Z,49.50
2022-10-17T18:04:51.052Z,62.65
2022-10-17T18:08:55.849Z,58.47
2022-10-17T18:12:57.522Z,68.32
2022-10-17T18:16:59.371Z,74.68
2022-10-17T18:21:01.306Z,67.82
2022-10-17T18:25:03.407Z,67.55
2022-10-17T18:29:05.280Z,67.70
2022-10-17T18:33:07.272Z,63.60
2022-10-17T18:37:09.010Z,71.25
2022-10-17T18:41:16.260Z,72.63
2022-10-17T18:45:18.075Z,73.68
2022-10-17T18:49:21.667Z,69.55
2022-10-17T18:53:23.377Z,60.20
2022-10-17T18:57:26.265Z,66.28
2022-10-17T19:01:28.721Z,65.28
2022-10-17T19:05:30.433Z,65.78
2022-10-17T19:09:32.384Z,65.22
2022-10-17T19:13:35.317Z,66.80
2022-10-17T19:17:37.212Z,66.53
2022-10-17T19:21:40.024Z,71.93
2022-10-17T19:25:41.842Z,68.35
2022-10-17T19:29:44.070Z,67.68
2022-10-17T19:33:49.541Z,65.68
2022-10-17T19:37:51.441Z,68.75
2022-10-17T19:41:53.429Z,62.10
2022-10-17T19:45:57.247Z,65.20
2022-10-17T19:49:59.138Z,66.38
2022-10-17T19:54:01.421Z,63.45
2022-10-17T19:58:03.370Z,59.63
2022-10-17T20:02:05.072Z,58.13
2022-10-17T20:06:07.297Z,58.78
2022-10-17T20:10:09.396Z,63.45
2022-10-17T20:14:11.274Z,63.50
2022-10-17T20:18:12.962Z,60.97
2022-10-17T20:22:14.807Z,65.00
2022-10-17T20:26:33.185Z,56.08
2022-10-17T20:30:46.483Z,54.42
2022-10-17T20:34:48.415Z,56.05
2022-10-17T20:38:57.893Z,62.55
2022-10-17T20:42:59.627Z,50.75
2022-10-17T20:47:02.717Z,67.97
2022-10-17T20:51:09.154Z,53.80
2022-10-17T20:55:11.045Z,52.00
2022-10-17T20:59:14.989Z,59.80
2022-10-17T21:03:16.771Z,55.00
2022-10-17T21:07:18.620Z,60.38
2022-10-17T21:11:22.948Z,59.20
2022-10-17T21:15:24.653Z,57.90
2022-10-17T21:19:26.408Z,61.40
2022-10-17T21:23:28.109Z,55.08
2022-10-17T21:27:30.028Z,48.58
2022-10-17T21:31:36.987Z,53.50
2022-10-17T21:35:39.046Z,55.72
2022-10-17T21:39:40.747Z,55.47
2022-10-17T21:43:43.588Z,48.53
2022-10-17T21:48:11.126Z,51.40
2022-10-17T21:52:07.236Z,61.45
2022-10-17T21:56:14.998Z,54.85
2022-10-17T22:00:17.093Z,51.30
2022-10-17T22:04:19.582Z,54.15
2022-10-17T22:08:21.394Z,50.10
2022-10-17T22:12:23.454Z,53.53
2022-10-17T22:16:25.547Z,50.50
2022-10-17T22:20:27.401Z,54.45
2022-10-17T22:24:29.293Z,55.13
2022-10-17T22:28:31.623Z,56.90
2022-10-17T22:32:33.273Z,53.08
2022-10-17T22:36:35.818Z,52.92
2022-10-17T22:40:37.442Z,53.75
2022-10-17T22:44:39.272Z,55.75
2022-10-17T22:48:40.971Z,49.15
2022-10-17T22:52:42.718Z,52.00
2022-10-17T22:56:44.268Z,54.17
2022-10-17T23:00:46.716Z,48.90
2022-10-17T23:04:48.304Z,53.13
2022-10-17T23:08:50.598Z,51.55
2022-10-17T23:12:52.227Z,46.40
2022-10-17T23:16:54.060Z,53.15
2022-10-17T23:20:55.966Z,50.65
2022-10-17T23:24:57.895Z,48.67
2022-10-17T23:29:00.157Z,56.83
2022-10-17T23:33:03.044Z,66.85
2022-10-17T23:37:04.763Z,61.03
2022-10-17T23:41:06.877Z,61.30
2022-10-17T23:45:08.956Z,53.53
2022-10-17T23:49:11.365Z,57.03
2022-10-17T23:53:12.984Z,58.97
2022-10-17T23:57:14.888Z,62.33
